sensor_id;sensor_type;location;lat;lon;timestamp;P1;durP1;ratioP1;P2;durP2;ratioP2
58338;SDS011;48278;52.704;6.536;2022-09-03T00:00:56;9.23;;;3.00;;
58338;SDS011;48278;52.704;6.536;2022-09-03T00:03:28;6.15;;;2.92;;
58338;SDS011;48278;52.704;6.536;2022-09-03T00:11:15;6.38;;;3.03;;
58338;SDS011;48278;52.704;6.536;2022-09-03T00:13:56;9.88;;;2.63;;
58338;SDS011;48278;52.704;6.536;2022-09-03T00:16:29;9.10;;;2.85;;
58338;SDS011;48278;52.704;6.536;2022-09-03T00:19:00;6.55;;;2.78;;
58338;SDS011;48278;52.704;6.536;2022-09-03T00:21:39;6.10;;;2.90;;
58338;SDS011;48278;52.704;6.536;2022-09-03T00:24:10;11.23;;;3.13;;
58338;SDS011;48278;52.704;6.536;2022-09-03T00:26:59;7.90;;;2.88;;
58338;SDS011;48278;52.704;6.536;2022-09-03T00:29:28;6.93;;;2.38;;
58338;SDS011;48278;52.704;6.536;2022-09-03T00:32:06;8.43;;;2.97;;
58338;SDS011;48278;52.704;6.536;2022-09-03T00:34:38;12.32;;;3.13;;
58338;SDS011;48278;52.704;6.536;2022-09-03T00:37:08;8.85;;;2.80;;
58338;SDS011;48278;52.704;6.536;2022-09-03T00:39:35;6.40;;;2.58;;
58338;SDS011;48278;52.704;6.536;2022-09-03T00:47:46;6.47;;;2.47;;
58338;SDS011;48278;52.704;6.536;2022-09-03T00:50:47;7.25;;;2.50;;
58338;SDS011;48278;52.704;6.536;2022-09-03T00:56:26;8.25;;;2.70;;
58338;SDS011;48278;52.704;6.536;2022-09-03T01:04:32;6.88;;;2.45;;
58338;SDS011;48278;52.704;6.536;2022-09-03T01:07:28;6.00;;;2.55;;
58338;SDS011;48278;52.704;6.536;2022-09-03T01:12:53;8.00;;;2.60;;
58338;SDS011;48278;52.704;6.536;2022-09-03T01:18:21;7.55;;;2.35;;
58338;SDS011;48278;52.704;6.536;2022-09-03T01:45:39;10.73;;;2.53;;
58338;SDS011;48278;52.704;6.536;2022-09-03T01:51:15;6.97;;;2.22;;
58338;SDS011;48278;52.704;6.536;2022-09-03T02:04:54;4.75;;;2.13;;
58338;SDS011;48278;52.704;6.536;2022-09-03T02:07:23;5.85;;;2.55;;
58338;SDS011;48278;52.704;6.536;2022-09-03T02:09:57;5.07;;;2.38;;
58338;SDS011;48278;52.704;6.536;2022-09-03T02:12:25;7.75;;;2.35;;
58338;SDS011;48278;52.704;6.536;2022-09-03T02:14:53;6.97;;;2.20;;
58338;SDS011;48278;52.704;6.536;2022-09-03T02:17:20;8.88;;;2.75;;
58338;SDS011;48278;52.704;6.536;2022-09-03T02:19:45;7.40;;;2.45;;
58338;SDS011;48278;52.704;6.536;2022-09-03T02:22:11;7.30;;;2.67;;
58338;SDS011;48278;52.704;6.536;2022-09-03T02:24:37;8.65;;;2.70;;
58338;SDS011;48278;52.704;6.536;2022-09-03T02:27:03;5.57;;;2.43;;
58338;SDS011;48278;52.704;6.536;2022-09-03T02:29:30;7.47;;;2.30;;
58338;SDS011;48278;52.704;6.536;2022-09-03T02:31:56;5.35;;;2.42;;
58338;SDS011;48278;52.704;6.536;2022-09-03T02:34:23;7.53;;;2.40;;
58338;SDS011;48278;52.704;6.536;2022-09-03T02:36:48;6.03;;;2.50;;
58338;SDS011;48278;52.704;6.536;2022-09-03T02:39:15;7.18;;;2.25;;
58338;SDS011;48278;52.704;6.536;2022-09-03T02:41:40;4.30;;;1.88;;
58338;SDS011;48278;52.704;6.536;2022-09-03T02:46:57;4.88;;;1.75;;
58338;SDS011;48278;52.704;6.536;2022-09-03T02:49:27;12.43;;;2.60;;
58338;SDS011;48278;52.704;6.536;2022-09-03T02:52:04;4.10;;;2.00;;
58338;SDS011;48278;52.704;6.536;2022-09-03T02:54:36;5.30;;;2.22;;
58338;SDS011;48278;52.704;6.536;2022-09-03T02:57:09;8.45;;;2.58;;
58338;SDS011;48278;52.704;6.536;2022-09-03T02:59:37;5.25;;;2.35;;
58338;SDS011;48278;52.704;6.536;2022-09-03T03:02:04;7.03;;;2.47;;
58338;SDS011;48278;52.704;6.536;2022-09-03T03:04:30;7.10;;;2.40;;
58338;SDS011;48278;52.704;6.536;2022-09-03T03:06:56;5.13;;;1.92;;
58338;SDS011;48278;52.704;6.536;2022-09-03T03:09:22;4.50;;;2.40;;
58338;SDS011;48278;52.704;6.536;2022-09-03T03:11:48;4.93;;;2.33;;
58338;SDS011;48278;52.704;6.536;2022-09-03T03:14:16;8.10;;;2.95;;
58338;SDS011;48278;52.704;6.536;2022-09-03T03:16:42;6.97;;;2.60;;
58338;SDS011;48278;52.704;6.536;2022-09-03T03:19:09;10.30;;;2.60;;
58338;SDS011;48278;52.704;6.536;2022-09-03T03:21:35;6.40;;;2.20;;
58338;SDS011;48278;52.704;6.536;2022-09-03T03:24:01;5.40;;;2.28;;
58338;SDS011;48278;52.704;6.536;2022-09-03T03:26:27;8.98;;;2.50;;
58338;SDS011;48278;52.704;6.536;2022-09-03T03:28:56;8.80;;;2.67;;
58338;SDS011;48278;52.704;6.536;2022-09-03T03:31:23;6.00;;;2.60;;
58338;SDS011;48278;52.704;6.536;2022-09-03T03:33:59;6.20;;;2.20;;
58338;SDS011;48278;52.704;6.536;2022-09-03T03:36:28;8.00;;;2.65;;
58338;SDS011;48278;52.704;6.536;2022-09-03T03:38:56;7.13;;;2.88;;
58338;SDS011;48278;52.704;6.536;2022-09-03T03:41:24;10.30;;;2.70;;
58338;SDS011;48278;52.704;6.536;2022-09-03T03:43:55;6.70;;;2.58;;
58338;SDS011;48278;52.704;6.536;2022-09-03T03:46:23;9.75;;;2.30;;
58338;SDS011;48278;52.704;6.536;2022-09-03T03:48:49;8.75;;;2.38;;
58338;SDS011;48278;52.704;6.536;2022-09-03T03:51:17;8.10;;;2.40;;
58338;SDS011;48278;52.704;6.536;2022-09-03T03:53:43;8.15;;;2.30;;
58338;SDS011;48278;52.704;6.536;2022-09-03T03:56:10;6.50;;;2.42;;
58338;SDS011;48278;52.704;6.536;2022-09-03T03:58:38;5.60;;;2.50;;
58338;SDS011;48278;52.704;6.536;2022-09-03T04:01:12;6.88;;;2.20;;
58338;SDS011;48278;52.704;6.536;2022-09-03T04:03:42;7.03;;;2.22;;
58338;SDS011;48278;52.704;6.536;2022-09-03T04:06:09;7.78;;;2.25;;
58338;SDS011;48278;52.704;6.536;2022-09-03T04:08:37;5.63;;;2.53;;
58338;SDS011;48278;52.704;6.536;2022-09-03T04:11:05;8.27;;;2.30;;
58338;SDS011;48278;52.704;6.536;2022-09-03T04:13:35;14.30;;;2.50;;
58338;SDS011;48278;52.704;6.536;2022-09-03T04:16:03;5.90;;;2.30;;
58338;SDS011;48278;52.704;6.536;2022-09-03T04:18:29;5.18;;;2.15;;
58338;SDS011;48278;52.704;6.536;2022-09-03T04:21:12;7.90;;;2.95;;
58338;SDS011;48278;52.704;6.536;2022-09-03T04:23:44;5.07;;;2.50;;
58338;SDS011;48278;52.704;6.536;2022-09-03T04:26:12;6.45;;;2.45;;
58338;SDS011;48278;52.704;6.536;2022-09-03T04:28:39;9.63;;;2.63;;
58338;SDS011;48278;52.704;6.536;2022-09-03T04:31:07;7.90;;;2.60;;
58338;SDS011;48278;52.704;6.536;2022-09-03T04:33:34;6.63;;;2.70;;
58338;SDS011;48278;52.704;6.536;2022-09-03T04:38:31;6.43;;;2.50;;
58338;SDS011;48278;52.704;6.536;2022-09-03T04:40:58;5.38;;;2.53;;
58338;SDS011;48278;52.704;6.536;2022-09-03T04:43:27;5.75;;;2.72;;
58338;SDS011;48278;52.704;6.536;2022-09-03T04:45:57;6.80;;;2.70;;
58338;SDS011;48278;52.704;6.536;2022-09-03T04:48:24;9.13;;;2.75;;
58338;SDS011;48278;52.704;6.536;2022-09-03T04:50:51;14.07;;;3.05;;
58338;SDS011;48278;52.704;6.536;2022-09-03T04:53:17;9.03;;;2.83;;
58338;SDS011;48278;52.704;6.536;2022-09-03T04:55:42;9.82;;;3.30;;
58338;SDS011;48278;52.704;6.536;2022-09-03T04:58:08;9.73;;;2.85;;
58338;SDS011;48278;52.704;6.536;2022-09-03T05:00:37;7.80;;;2.97;;
58338;SDS011;48278;52.704;6.536;2022-09-03T05:03:04;8.73;;;2.60;;
58338;SDS011;48278;52.704;6.536;2022-09-03T05:05:32;5.32;;;2.75;;
58338;SDS011;48278;52.704;6.536;2022-09-03T05:07:59;8.85;;;2.85;;
58338;SDS011;48278;52.704;6.536;2022-09-03T05:10:25;7.13;;;2.80;;
58338;SDS011;48278;52.704;6.536;2022-09-03T05:13:25;4.83;;;2.70;;
58338;SDS011;48278;52.704;6.536;2022-09-03T05:15:43;8.25;;;3.42;;
58338;SDS011;48278;52.704;6.536;2022-09-03T05:18:09;7.53;;;3.08;;
58338;SDS011;48278;52.704;6.536;2022-09-03T05:20:35;11.55;;;3.13;;
58338;SDS011;48278;52.704;6.536;2022-09-03T05:23:01;6.43;;;3.13;;
58338;SDS011;48278;52.704;6.536;2022-09-03T05:25:28;8.98;;;3.35;;
58338;SDS011;48278;52.704;6.536;2022-09-03T05:27:58;11.82;;;3.45;;
58338;SDS011;48278;52.704;6.536;2022-09-03T05:30:24;6.30;;;3.22;;
58338;SDS011;48278;52.704;6.536;2022-09-03T05:32:50;8.05;;;3.63;;
58338;SDS011;48278;52.704;6.536;2022-09-03T05:35:16;7.72;;;3.17;;
58338;SDS011;48278;52.704;6.536;2022-09-03T05:37:42;8.73;;;3.30;;
58338;SDS011;48278;52.704;6.536;2022-09-03T05:40:08;15.93;;;3.40;;
58338;SDS011;48278;52.704;6.536;2022-09-03T05:42:36;8.15;;;3.25;;
58338;SDS011;48278;52.704;6.536;2022-09-03T05:45:08;16.38;;;3.85;;
58338;SDS011;48278;52.704;6.536;2022-09-03T05:47:38;6.15;;;2.75;;
58338;SDS011;48278;52.704;6.536;2022-09-03T05:50:07;9.85;;;2.95;;
58338;SDS011;48278;52.704;6.536;2022-09-03T05:52:35;12.32;;;3.97;;
58338;SDS011;48278;52.704;6.536;2022-09-03T05:55:01;10.00;;;2.72;;
58338;SDS011;48278;52.704;6.536;2022-09-03T05:57:28;10.48;;;3.55;;
58338;SDS011;48278;52.704;6.536;2022-09-03T05:59:54;10.48;;;3.30;;
58338;SDS011;48278;52.704;6.536;2022-09-03T06:02:20;10.73;;;3.67;;
58338;SDS011;48278;52.704;6.536;2022-09-03T06:04:46;6.97;;;3.13;;
58338;SDS011;48278;52.704;6.536;2022-09-03T06:07:12;9.68;;;3.47;;
58338;SDS011;48278;52.704;6.536;2022-09-03T06:09:38;11.53;;;3.77;;
58338;SDS011;48278;52.704;6.536;2022-09-03T06:12:04;10.35;;;3.38;;
58338;SDS011;48278;52.704;6.536;2022-09-03T06:14:30;12.65;;;3.80;;
58338;SDS011;48278;52.704;6.536;2022-09-03T06:16:55;8.77;;;3.50;;
58338;SDS011;48278;52.704;6.536;2022-09-03T06:19:21;9.25;;;3.60;;
58338;SDS011;48278;52.704;6.536;2022-09-03T06:21:47;6.30;;;3.13;;
58338;SDS011;48278;52.704;6.536;2022-09-03T06:24:17;10.73;;;3.67;;
58338;SDS011;48278;52.704;6.536;2022-09-03T06:26:44;7.93;;;3.75;;
58338;SDS011;48278;52.704;6.536;2022-09-03T06:29:11;13.43;;;3.77;;
58338;SDS011;48278;52.704;6.536;2022-09-03T06:31:37;10.40;;;3.70;;
58338;SDS011;48278;52.704;6.536;2022-09-03T06:34:03;10.10;;;3.72;;
58338;SDS011;48278;52.704;6.536;2022-09-03T06:36:30;13.30;;;3.83;;
58338;SDS011;48278;52.704;6.536;2022-09-03T06:38:56;9.60;;;4.10;;
58338;SDS011;48278;52.704;6.536;2022-09-03T06:41:26;7.22;;;3.47;;
58338;SDS011;48278;52.704;6.536;2022-09-03T06:43:59;23.58;;;4.28;;
58338;SDS011;48278;52.704;6.536;2022-09-03T06:46:28;7.40;;;3.75;;
58338;SDS011;48278;52.704;6.536;2022-09-03T06:49:02;10.75;;;4.00;;
58338;SDS011;48278;52.704;6.536;2022-09-03T06:51:29;11.90;;;3.88;;
58338;SDS011;48278;52.704;6.536;2022-09-03T06:54:01;9.60;;;3.95;;
58338;SDS011;48278;52.704;6.536;2022-09-03T06:56:37;8.93;;;3.97;;
58338;SDS011;48278;52.704;6.536;2022-09-03T06:59:05;14.43;;;3.85;;
58338;SDS011;48278;52.704;6.536;2022-09-03T07:01:35;9.27;;;4.35;;
58338;SDS011;48278;52.704;6.536;2022-09-03T07:04:04;11.95;;;4.18;;
58338;SDS011;48278;52.704;6.536;2022-09-03T07:06:32;13.48;;;4.65;;
58338;SDS011;48278;52.704;6.536;2022-09-03T07:09:07;12.18;;;4.30;;
58338;SDS011;48278;52.704;6.536;2022-09-03T07:11:34;10.63;;;3.67;;
58338;SDS011;48278;52.704;6.536;2022-09-03T07:16:28;11.18;;;4.40;;
58338;SDS011;48278;52.704;6.536;2022-09-03T07:18:59;13.95;;;4.53;;
58338;SDS011;48278;52.704;6.536;2022-09-03T07:21:26;9.88;;;4.13;;
58338;SDS011;48278;52.704;6.536;2022-09-03T07:23:53;8.55;;;3.60;;
58338;SDS011;48278;52.704;6.536;2022-09-03T07:26:21;15.68;;;4.82;;
58338;SDS011;48278;52.704;6.536;2022-09-03T07:28:52;10.82;;;4.07;;
58338;SDS011;48278;52.704;6.536;2022-09-03T07:31:19;12.25;;;4.53;;
58338;SDS011;48278;52.704;6.536;2022-09-03T07:33:52;9.10;;;4.07;;
58338;SDS011;48278;52.704;6.536;2022-09-03T07:36:19;8.93;;;3.88;;
58338;SDS011;48278;52.704;6.536;2022-09-03T07:38:46;12.18;;;4.30;;
58338;SDS011;48278;52.704;6.536;2022-09-03T07:41:12;12.13;;;3.95;;
58338;SDS011;48278;52.704;6.536;2022-09-03T07:43:43;10.50;;;3.78;;
58338;SDS011;48278;52.704;6.536;2022-09-03T07:46:19;12.07;;;3.80;;
58338;SDS011;48278;52.704;6.536;2022-09-03T07:48:57;12.93;;;3.53;;
58338;SDS011;48278;52.704;6.536;2022-09-03T07:51:26;12.48;;;4.30;;
58338;SDS011;48278;52.704;6.536;2022-09-03T07:53:54;9.60;;;3.70;;
58338;SDS011;48278;52.704;6.536;2022-09-03T07:56:26;13.18;;;3.78;;
58338;SDS011;48278;52.704;6.536;2022-09-03T07:58:55;12.70;;;3.58;;
58338;SDS011;48278;52.704;6.536;2022-09-03T08:01:22;9.98;;;4.40;;
58338;SDS011;48278;52.704;6.536;2022-09-03T08:03:50;11.05;;;3.72;;
58338;SDS011;48278;52.704;6.536;2022-09-03T08:06:18;7.75;;;3.88;;
58338;SDS011;48278;52.704;6.536;2022-09-03T08:08:46;14.60;;;4.13;;
58338;SDS011;48278;52.704;6.536;2022-09-03T08:11:13;7.88;;;3.70;;
58338;SDS011;48278;52.704;6.536;2022-09-03T08:13:52;8.82;;;3.40;;
58338;SDS011;48278;52.704;6.536;2022-09-03T08:16:21;12.18;;;3.63;;
58338;SDS011;48278;52.704;6.536;2022-09-03T08:18:47;6.90;;;3.72;;
58338;SDS011;48278;52.704;6.536;2022-09-03T08:21:16;10.98;;;3.65;;
58338;SDS011;48278;52.704;6.536;2022-09-03T08:23:47;12.82;;;3.42;;
58338;SDS011;48278;52.704;6.536;2022-09-03T08:26:15;7.45;;;3.53;;
58338;SDS011;48278;52.704;6.536;2022-09-03T08:28:42;8.32;;;3.58;;
58338;SDS011;48278;52.704;6.536;2022-09-03T08:31:10;10.23;;;3.60;;
58338;SDS011;48278;52.704;6.536;2022-09-03T08:33:47;10.13;;;3.50;;
58338;SDS011;48278;52.704;6.536;2022-09-03T08:36:15;14.60;;;4.10;;
58338;SDS011;48278;52.704;6.536;2022-09-03T08:38:49;10.88;;;3.20;;
58338;SDS011;48278;52.704;6.536;2022-09-03T08:44:27;8.40;;;3.20;;
58338;SDS011;48278;52.704;6.536;2022-09-03T08:47:04;10.18;;;3.35;;
58338;SDS011;48278;52.704;6.536;2022-09-03T08:49:52;9.05;;;3.00;;
58338;SDS011;48278;52.704;6.536;2022-09-03T08:57:56;7.47;;;2.90;;
58338;SDS011;48278;52.704;6.536;2022-09-03T09:11:48;12.52;;;3.28;;
58338;SDS011;48278;52.704;6.536;2022-09-03T09:14:34;13.05;;;3.10;;
58338;SDS011;48278;52.704;6.536;2022-09-03T09:20:05;9.65;;;3.30;;
58338;SDS011;48278;52.704;6.536;2022-09-03T09:22:54;11.68;;;3.15;;
58338;SDS011;48278;52.704;6.536;2022-09-03T09:25:27;7.95;;;3.03;;
58338;SDS011;48278;52.704;6.536;2022-09-03T09:27:57;7.68;;;2.88;;
58338;SDS011;48278;52.704;6.536;2022-09-03T09:30:26;13.32;;;3.25;;
58338;SDS011;48278;52.704;6.536;2022-09-03T09:32:53;8.68;;;3.10;;
58338;SDS011;48278;52.704;6.536;2022-09-03T09:35:20;13.00;;;2.90;;
58338;SDS011;48278;52.704;6.536;2022-09-03T09:37:50;13.18;;;2.83;;
58338;SDS011;48278;52.704;6.536;2022-09-03T09:43:06;17.33;;;3.10;;
58338;SDS011;48278;52.704;6.536;2022-09-03T09:45:40;6.95;;;2.72;;
58338;SDS011;48278;52.704;6.536;2022-09-03T09:48:20;11.50;;;2.83;;
58338;SDS011;48278;52.704;6.536;2022-09-03T09:50:46;8.75;;;2.95;;
58338;SDS011;48278;52.704;6.536;2022-09-03T09:53:13;9.48;;;3.10;;
58338;SDS011;48278;52.704;6.536;2022-09-03T09:55:53;12.82;;;3.33;;
58338;SDS011;48278;52.704;6.536;2022-09-03T09:58:22;8.68;;;2.78;;
58338;SDS011;48278;52.704;6.536;2022-09-03T10:01:10;10.15;;;2.80;;
58338;SDS011;48278;52.704;6.536;2022-09-03T10:03:49;10.57;;;2.60;;
58338;SDS011;48278;52.704;6.536;2022-09-03T10:06:21;12.55;;;2.85;;
58338;SDS011;48278;52.704;6.536;2022-09-03T10:09:07;13.30;;;2.80;;
58338;SDS011;48278;52.704;6.536;2022-09-03T10:11:36;9.20;;;2.42;;
58338;SDS011;48278;52.704;6.536;2022-09-03T10:14:06;8.43;;;2.55;;
58338;SDS011;48278;52.704;6.536;2022-09-03T10:17:01;7.53;;;2.77;;
58338;SDS011;48278;52.704;6.536;2022-09-03T10:20:18;7.45;;;3.00;;
58338;SDS011;48278;52.704;6.536;2022-09-03T10:23:12;7.85;;;2.50;;
58338;SDS011;48278;52.704;6.536;2022-09-03T10:28:35;10.25;;;2.53;;
58338;SDS011;48278;52.704;6.536;2022-09-03T10:38:54;7.10;;;2.60;;
58338;SDS011;48278;52.704;6.536;2022-09-03T10:50:22;9.15;;;2.50;;
58338;SDS011;48278;52.704;6.536;2022-09-03T10:58:28;12.75;;;2.80;;
58338;SDS011;48278;52.704;6.536;2022-09-03T11:06:52;18.53;;;2.33;;
58338;SDS011;48278;52.704;6.536;2022-09-03T11:09:29;8.25;;;2.40;;
58338;SDS011;48278;52.704;6.536;2022-09-03T11:12:00;11.23;;;2.75;;
58338;SDS011;48278;52.704;6.536;2022-09-03T11:14:42;6.00;;;2.38;;
58338;SDS011;48278;52.704;6.536;2022-09-03T11:17:13;10.88;;;2.75;;
58338;SDS011;48278;52.704;6.536;2022-09-03T11:19:54;10.00;;;2.80;;
58338;SDS011;48278;52.704;6.536;2022-09-03T11:22:45;8.60;;;2.83;;
58338;SDS011;48278;52.704;6.536;2022-09-03T11:25:13;6.88;;;2.60;;
58338;SDS011;48278;52.704;6.536;2022-09-03T11:30:33;10.17;;;2.40;;
58338;SDS011;48278;52.704;6.536;2022-09-03T11:33:00;7.80;;;2.60;;
58338;SDS011;48278;52.704;6.536;2022-09-03T11:37:59;9.57;;;2.13;;
58338;SDS011;48278;52.704;6.536;2022-09-03T11:40:37;9.32;;;2.60;;
58338;SDS011;48278;52.704;6.536;2022-09-03T11:43:46;10.50;;;2.35;;
58338;SDS011;48278;52.704;6.536;2022-09-03T11:48:40;7.17;;;2.30;;
58338;SDS011;48278;52.704;6.536;2022-09-03T11:51:28;6.18;;;2.40;;
58338;SDS011;48278;52.704;6.536;2022-09-03T11:54:22;6.55;;;2.38;;
58338;SDS011;48278;52.704;6.536;2022-09-03T11:56:50;4.65;;;2.30;;
58338;SDS011;48278;52.704;6.536;2022-09-03T11:59:28;5.70;;;2.30;;
58338;SDS011;48278;52.704;6.536;2022-09-03T12:01:59;7.00;;;2.45;;
58338;SDS011;48278;52.704;6.536;2022-09-03T12:04:48;8.80;;;2.30;;
58338;SDS011;48278;52.704;6.536;2022-09-03T12:07:24;4.68;;;1.90;;
58338;SDS011;48278;52.704;6.536;2022-09-03T12:10:21;8.63;;;2.47;;
58338;SDS011;48278;52.704;6.536;2022-09-03T12:18:54;7.03;;;2.08;;
58338;SDS011;48278;52.704;6.536;2022-09-03T12:21:35;7.38;;;2.33;;
58338;SDS011;48278;52.704;6.536;2022-09-03T12:24:02;6.10;;;2.10;;
58338;SDS011;48278;52.704;6.536;2022-09-03T12:26:28;7.70;;;1.90;;
58338;SDS011;48278;52.704;6.536;2022-09-03T12:28:55;7.20;;;2.13;;
58338;SDS011;48278;52.704;6.536;2022-09-03T12:31:26;4.80;;;1.92;;
58338;SDS011;48278;52.704;6.536;2022-09-03T12:36:23;5.10;;;2.10;;
58338;SDS011;48278;52.704;6.536;2022-09-03T12:38:51;6.28;;;2.40;;
58338;SDS011;48278;52.704;6.536;2022-09-03T12:41:27;9.10;;;2.15;;
58338;SDS011;48278;52.704;6.536;2022-09-03T12:43:58;5.07;;;2.13;;
58338;SDS011;48278;52.704;6.536;2022-09-03T12:46:26;8.73;;;2.20;;
58338;SDS011;48278;52.704;6.536;2022-09-03T12:48:53;9.02;;;2.08;;
58338;SDS011;48278;52.704;6.536;2022-09-03T12:51:20;5.78;;;2.13;;
58338;SDS011;48278;52.704;6.536;2022-09-03T12:53:47;6.30;;;1.90;;
58338;SDS011;48278;52.704;6.536;2022-09-03T12:56:15;7.13;;;1.77;;
58338;SDS011;48278;52.704;6.536;2022-09-03T12:58:46;5.88;;;1.95;;
58338;SDS011;48278;52.704;6.536;2022-09-03T13:01:24;6.35;;;1.95;;
58338;SDS011;48278;52.704;6.536;2022-09-03T13:04:00;4.80;;;1.90;;
58338;SDS011;48278;52.704;6.536;2022-09-03T13:06:55;5.38;;;1.92;;
58338;SDS011;48278;52.704;6.536;2022-09-03T13:09:25;6.97;;;2.08;;
58338;SDS011;48278;52.704;6.536;2022-09-03T13:11:54;5.18;;;1.65;;
58338;SDS011;48278;52.704;6.536;2022-09-03T13:14:23;12.50;;;2.00;;
58338;SDS011;48278;52.704;6.536;2022-09-03T13:17:35;7.15;;;2.28;;
58338;SDS011;48278;52.704;6.536;2022-09-03T13:25:29;7.07;;;2.10;;
58338;SDS011;48278;52.704;6.536;2022-09-03T13:37:15;4.75;;;1.83;;
58338;SDS011;48278;52.704;6.536;2022-09-03T13:39:54;4.53;;;2.10;;
58338;SDS011;48278;52.704;6.536;2022-09-03T13:42:37;7.03;;;2.03;;
58338;SDS011;48278;52.704;6.536;2022-09-03T13:45:27;4.32;;;1.75;;
58338;SDS011;48278;52.704;6.536;2022-09-03T13:51:18;5.70;;;1.85;;
58338;SDS011;48278;52.704;6.536;2022-09-03T13:59:39;5.65;;;2.15;;
58338;SDS011;48278;52.704;6.536;2022-09-03T14:07:27;9.38;;;1.98;;
58338;SDS011;48278;52.704;6.536;2022-09-03T14:19:04;6.45;;;2.10;;
58338;SDS011;48278;52.704;6.536;2022-09-03T14:22:11;9.73;;;2.13;;
58338;SDS011;48278;52.704;6.536;2022-09-03T14:24:39;7.00;;;2.20;;
58338;SDS011;48278;52.704;6.536;2022-09-03T14:27:08;8.00;;;2.20;;
58338;SDS011;48278;52.704;6.536;2022-09-03T14:29:35;6.60;;;2.08;;
58338;SDS011;48278;52.704;6.536;2022-09-03T14:51:32;5.78;;;2.28;;
58338;SDS011;48278;52.704;6.536;2022-09-03T14:54:35;8.43;;;2.17;;
58338;SDS011;48278;52.704;6.536;2022-09-03T14:59:57;15.18;;;2.53;;
58338;SDS011;48278;52.704;6.536;2022-09-03T15:11:19;6.95;;;2.00;;
58338;SDS011;48278;52.704;6.536;2022-09-03T15:13:51;8.27;;;2.10;;
58338;SDS011;48278;52.704;6.536;2022-09-03T15:16:46;5.38;;;1.98;;
58338;SDS011;48278;52.704;6.536;2022-09-03T15:21:53;9.52;;;2.30;;
58338;SDS011;48278;52.704;6.536;2022-09-03T15:25:01;6.88;;;2.35;;
58338;SDS011;48278;52.704;6.536;2022-09-03T15:27:48;10.18;;;2.63;;
58338;SDS011;48278;52.704;6.536;2022-09-03T15:30:34;9.45;;;1.90;;
58338;SDS011;48278;52.704;6.536;2022-09-03T15:33:18;5.82;;;2.08;;
58338;SDS011;48278;52.704;6.536;2022-09-03T15:44:13;7.80;;;2.13;;
58338;SDS011;48278;52.704;6.536;2022-09-03T15:54:45;9.15;;;2.97;;
58338;SDS011;48278;52.704;6.536;2022-09-03T16:00:11;9.45;;;2.00;;
58338;SDS011;48278;52.704;6.536;2022-09-03T16:02:45;7.55;;;2.20;;
58338;SDS011;48278;52.704;6.536;2022-09-03T16:05:27;7.87;;;2.50;;
58338;SDS011;48278;52.704;6.536;2022-09-03T16:10:49;6.00;;;2.60;;
58338;SDS011;48278;52.704;6.536;2022-09-03T16:16:54;11.43;;;4.38;;
58338;SDS011;48278;52.704;6.536;2022-09-03T16:22:28;7.85;;;3.20;;
58338;SDS011;48278;52.704;6.536;2022-09-03T16:24:54;5.82;;;2.17;;
58338;SDS011;48278;52.704;6.536;2022-09-03T16:27:52;9.27;;;2.40;;
58338;SDS011;48278;52.704;6.536;2022-09-03T16:50:08;5.82;;;2.78;;
58338;SDS011;48278;52.704;6.536;2022-09-03T16:56:30;15.63;;;2.47;;
58338;SDS011;48278;52.704;6.536;2022-09-03T16:58:47;6.88;;;2.53;;
58338;SDS011;48278;52.704;6.536;2022-09-03T17:03:53;5.55;;;2.30;;
58338;SDS011;48278;52.704;6.536;2022-09-03T17:06:29;9.38;;;2.90;;
58338;SDS011;48278;52.704;6.536;2022-09-03T17:20:03;6.65;;;2.40;;
58338;SDS011;48278;52.704;6.536;2022-09-03T17:22:39;7.13;;;2.53;;
58338;SDS011;48278;52.704;6.536;2022-09-03T17:25:46;6.68;;;2.40;;
58338;SDS011;48278;52.704;6.536;2022-09-03T17:31:04;6.80;;;2.65;;
58338;SDS011;48278;52.704;6.536;2022-09-03T17:33:41;6.88;;;2.80;;
58338;SDS011;48278;52.704;6.536;2022-09-03T17:36:29;9.02;;;2.97;;
58338;SDS011;48278;52.704;6.536;2022-09-03T18:01:32;8.95;;;3.10;;
58338;SDS011;48278;52.704;6.536;2022-09-03T18:06:23;8.40;;;3.15;;
58338;SDS011;48278;52.704;6.536;2022-09-03T18:11:46;6.40;;;2.70;;
58338;SDS011;48278;52.704;6.536;2022-09-03T18:20:04;8.13;;;2.80;;
58338;SDS011;48278;52.704;6.536;2022-09-03T18:25:44;6.35;;;2.95;;
58338;SDS011;48278;52.704;6.536;2022-09-03T18:28:41;9.07;;;3.38;;
58338;SDS011;48278;52.704;6.536;2022-09-03T18:31:30;8.98;;;2.85;;
58338;SDS011;48278;52.704;6.536;2022-09-03T18:34:15;14.90;;;3.58;;
58338;SDS011;48278;52.704;6.536;2022-09-03T18:37:02;7.47;;;3.22;;
58338;SDS011;48278;52.704;6.536;2022-09-03T18:39:47;10.70;;;3.35;;
58338;SDS011;48278;52.704;6.536;2022-09-03T18:48:47;11.80;;;3.35;;
58338;SDS011;48278;52.704;6.536;2022-09-03T19:01:24;10.30;;;3.13;;
58338;SDS011;48278;52.704;6.536;2022-09-03T19:08:18;7.65;;;3.20;;
58338;SDS011;48278;52.704;6.536;2022-09-03T19:14:31;8.38;;;3.45;;
58338;SDS011;48278;52.704;6.536;2022-09-03T19:17:22;8.50;;;3.53;;
58338;SDS011;48278;52.704;6.536;2022-09-03T19:20:13;8.50;;;3.78;;
58338;SDS011;48278;52.704;6.536;2022-09-03T19:23:06;10.70;;;4.63;;
58338;SDS011;48278;52.704;6.536;2022-09-03T19:25:51;7.70;;;3.90;;
58338;SDS011;48278;52.704;6.536;2022-09-03T19:28:40;9.40;;;4.13;;
58338;SDS011;48278;52.704;6.536;2022-09-03T19:37:29;8.07;;;4.18;;
58338;SDS011;48278;52.704;6.536;2022-09-03T19:40:35;7.78;;;3.58;;
58338;SDS011;48278;52.704;6.536;2022-09-03T19:43:28;12.27;;;3.65;;
58338;SDS011;48278;52.704;6.536;2022-09-03T19:46:46;7.10;;;3.70;;
58338;SDS011;48278;52.704;6.536;2022-09-03T19:49:30;9.05;;;3.63;;
58338;SDS011;48278;52.704;6.536;2022-09-03T19:52:49;20.88;;;3.75;;
58338;SDS011;48278;52.704;6.536;2022-09-03T19:55:55;11.02;;;3.67;;
58338;SDS011;48278;52.704;6.536;2022-09-03T19:58:42;8.55;;;3.92;;
58338;SDS011;48278;52.704;6.536;2022-09-03T20:01:33;7.97;;;3.90;;
58338;SDS011;48278;52.704;6.536;2022-09-03T20:04:19;6.72;;;3.75;;
58338;SDS011;48278;52.704;6.536;2022-09-03T20:07:18;8.70;;;4.18;;
58338;SDS011;48278;52.704;6.536;2022-09-03T20:10:04;8.82;;;4.13;;
58338;SDS011;48278;52.704;6.536;2022-09-03T20:13:08;10.63;;;4.10;;
58338;SDS011;48278;52.704;6.536;2022-09-03T20:18:38;8.23;;;3.88;;
58338;SDS011;48278;52.704;6.536;2022-09-03T20:21:19;8.52;;;4.60;;
58338;SDS011;48278;52.704;6.536;2022-09-03T20:24:20;14.75;;;5.07;;
58338;SDS011;48278;52.704;6.536;2022-09-03T20:30:20;10.80;;;4.80;;
58338;SDS011;48278;52.704;6.536;2022-09-03T20:46:50;12.95;;;4.55;;
58338;SDS011;48278;52.704;6.536;2022-09-03T20:52:13;8.80;;;3.63;;
58338;SDS011;48278;52.704;6.536;2022-09-03T21:00:10;9.88;;;3.83;;
58338;SDS011;48278;52.704;6.536;2022-09-03T21:11:10;10.88;;;4.10;;
58338;SDS011;48278;52.704;6.536;2022-09-03T21:13:41;10.30;;;3.15;;
58338;SDS011;48278;52.704;6.536;2022-09-03T21:16:22;18.13;;;4.28;;
58338;SDS011;48278;52.704;6.536;2022-09-03T21:24:27;6.82;;;3.35;;
58338;SDS011;48278;52.704;6.536;2022-09-03T21:26:59;9.65;;;4.00;;
58338;SDS011;48278;52.704;6.536;2022-09-03T21:29:43;11.02;;;3.75;;
58338;SDS011;48278;52.704;6.536;2022-09-03T21:32:17;12.02;;;3.30;;
58338;SDS011;48278;52.704;6.536;2022-09-03T21:34:54;9.25;;;3.90;;
58338;SDS011;48278;52.704;6.536;2022-09-03T21:37:27;12.05;;;3.70;;
58338;SDS011;48278;52.704;6.536;2022-09-03T21:40:03;10.40;;;3.72;;
58338;SDS011;48278;52.704;6.536;2022-09-03T21:48:11;8.65;;;3.38;;
58338;SDS011;48278;52.704;6.536;2022-09-03T21:53:19;7.85;;;3.20;;
58338;SDS011;48278;52.704;6.536;2022-09-03T21:56:09;15.48;;;3.22;;
58338;SDS011;48278;52.704;6.536;2022-09-03T22:01:25;13.57;;;3.47;;
58338;SDS011;48278;52.704;6.536;2022-09-03T22:04:01;7.00;;;3.30;;
58338;SDS011;48278;52.704;6.536;2022-09-03T22:06:32;7.10;;;3.33;;
58338;SDS011;48278;52.704;6.536;2022-09-03T22:09:45;9.38;;;3.80;;